Time;durP1;ratioP1;P1;durP2;ratioP2;P2;SDS_P1;SDS_P2;PMS_P1;PMS_P2;Temp;Humidity;BMP_temperature;BMP_pressure;BME280_temperature;BME280_humidity;BME280_pressure;Samples;Min_cycle;Max_cycle;Signal;HPM_P1;HPM_P2
2022/11/08 00:02:14;;;;;;;18.77;4.85;;;;;;;11.37;100.00;163537.91;5069061;28;20568;-62
2022/11/08 00:04:39;;;;;;;10.73;4.03;;;;;;;11.30;100.00;163517.66;5069334;28;20017;-61
2022/11/08 00:15:16;;;;;;;13.45;4.05;;;;;;;11.04;100.00;163451.50;5069761;28;20027;-62
2022/11/08 00:17:42;;;;;;;15.38;4.75;;;;;;;10.93;100.00;163423.16;5068629;28;20044;-61
2022/11/08 00:20:08;;;;;;;9.65;4.00;;;;;;;10.94;100.00;163424.50;5069495;28;20028;-62
2022/11/08 00:22:33;;;;;;;9.73;4.65;;;;;;;10.90;100.00;163413.72;5068871;28;20044;-62
2022/11/08 00:24:59;;;;;;;7.78;4.18;;;;;;;10.86;100.00;163402.88;5069882;28;20540;-62
2022/11/08 00:27:25;;;;;;;13.43;4.85;;;;;;;10.85;100.00;163401.56;5068296;28;20482;-62
2022/11/08 00:29:50;;;;;;;10.85;4.15;;;;;;;10.80;100.00;163388.03;5069273;28;20021;-62
2022/11/08 00:32:18;;;;;;;7.95;4.03;;;;;;;10.77;100.00;163381.28;5070924;28;20094;-62
2022/11/08 00:34:44;;;;;;;12.40;4.80;;;;;;;10.74;100.00;163373.22;5072843;28;20028;-62
2022/11/08 00:37:10;;;;;;;5.55;3.92;;;;;;;10.78;100.00;163384.00;5071829;28;20052;-62
2022/11/08 00:39:36;;;;;;;10.27;3.47;;;;;;;10.82;100.00;163392.09;5073024;28;20025;-62
2022/11/08 00:42:01;;;;;;;16.77;4.63;;;;;;;10.87;100.00;163405.59;5071992;28;20136;-62
2022/11/08 00:44:27;;;;;;;26.52;5.55;;;;;;;10.93;100.00;163421.78;5072660;28;20371;-63
2022/11/08 00:46:52;;;;;;;10.68;4.15;;;;;;;10.95;100.00;163427.19;5072027;28;20576;-62
2022/11/08 00:49:18;;;;;;;17.30;5.07;;;;;;;10.96;100.00;163429.91;5072531;28;20024;-62
2022/11/08 00:51:43;;;;;;;7.50;4.22;;;;;;;10.98;100.00;163435.31;5071353;28;20046;-62
2022/11/08 00:54:12;;;;;;;12.57;5.05;;;;;;;11.02;100.00;163446.09;5073342;28;20027;-61
2022/11/08 00:56:37;;;;;;;15.90;5.05;;;;;;;11.11;100.00;163470.41;5071579;28;20479;-61
2022/11/08 00:59:03;;;;;;;12.82;5.85;;;;;;;11.21;100.00;163494.69;5072451;28;20070;-62
2022/11/08 01:01:28;;;;;;;12.63;5.75;;;;;;;11.31;100.00;163521.72;5071397;28;20032;-61
2022/11/08 01:03:53;;;;;;;10.25;4.25;;;;;;;11.37;100.00;163537.91;5072642;28;20043;-61
2022/11/08 01:06:21;;;;;;;9.95;3.72;;;;;;;11.40;100.00;163546.03;5071089;28;20037;-61
2022/11/08 01:08:48;;;;;;;5.97;4.22;;;;;;;11.45;100.00;163556.81;5071980;28;20028;-61
2022/11/08 01:11:16;;;;;;;10.50;6.03;;;;;;;11.50;100.00;163570.34;5071088;28;20646;-61
2022/11/08 01:13:42;;;;;;;11.02;4.55;;;;;;;11.54;100.00;163581.13;5072103;28;20107;-61
2022/11/08 01:16:16;;;;;;;9.90;3.75;;;;;;;11.56;100.00;163587.88;5069731;28;20029;-61
2022/11/08 01:18:42;;;;;;;10.48;4.28;;;;;;;11.55;100.00;163585.16;5072072;28;20016;-61
2022/11/08 01:21:09;;;;;;;10.63;5.15;;;;;;;11.61;100.00;163600.03;5071054;28;20028;-61
2022/11/08 01:23:35;;;;;;;7.72;3.97;;;;;;;11.60;100.00;163597.31;5072535;28;20025;-61
2022/11/08 01:26:04;;;;;;;6.68;3.50;;;;;;;11.64;100.00;163608.16;5072589;28;20055;-61
2022/11/08 01:28:30;;;;;;;7.88;4.13;;;;;;;11.63;100.00;163604.06;5070680;28;20123;-62
2022/11/08 01:30:55;;;;;;;12.10;3.75;;;;;;;11.58;100.00;163593.28;5071831;28;20398;-62
2022/11/08 01:33:20;;;;;;;11.77;4.70;;;;;;;11.56;100.00;163586.53;5071127;28;20109;-62
2022/11/08 01:35:46;;;;;;;11.23;4.70;;;;;;;11.48;100.00;163564.94;5071699;28;20029;-62
2022/11/08 01:38:11;;;;;;;8.73;3.85;;;;;;;11.46;100.00;163559.50;5070830;28;20048;-61
2022/11/08 01:40:45;;;;;;;15.23;4.38;;;;;;;11.43;100.00;163554.09;5072144;28;20356;-62
2022/11/08 01:43:25;;;;;;;12.98;5.93;;;;;;;11.45;100.00;163556.81;5070524;28;20044;-62
2022/11/08 01:46:08;;;;;;;12.30;3.47;;;;;;;11.47;100.00;163562.22;5071292;28;20032;-62
2022/11/08 01:48:37;;;;;;;12.15;4.15;;;;;;;11.50;100.00;163570.34;5070629;28;20064;-62
2022/11/08 01:51:05;;;;;;;12.15;3.85;;;;;;;11.61;100.00;163600.03;5072102;28;20016;-62
2022/11/08 01:53:31;;;;;;;11.57;3.67;;;;;;;11.66;100.00;163612.19;5070666;28;20169;-62
2022/11/08 01:55:56;;;;;;;11.63;4.75;;;;;;;11.70;100.00;163624.38;5071874;28;20055;-62
2022/11/08 01:58:27;;;;;;;12.65;4.72;;;;;;;11.71;100.00;163627.06;5070103;28;20124;-62
2022/11/08 02:00:52;;;;;;;12.63;4.80;;;;;;;11.72;100.00;163629.78;5069704;28;20082;-62
2022/11/08 02:03:19;;;;;;;7.05;5.22;;;;;;;11.71;100.00;163625.69;5070383;28;20445;-62
2022/11/08 02:05:46;;;;;;;11.75;4.18;;;;;;;11.71;100.00;163627.06;5070472;28;20502;-62
2022/11/08 02:08:30;;;;;;;17.05;5.35;;;;;;;11.70;100.00;163624.38;5069982;28;20514;-62
2022/11/08 02:10:56;;;;;;;8.00;3.75;;;;;;;11.67;100.00;163616.22;5071034;28;20029;-62
2022/11/08 02:13:26;;;;;;;12.45;3.97;;;;;;;11.61;100.00;163600.03;5069836;28;20045;-62
2022/11/08 02:15:52;;;;;;;15.90;5.55;;;;;;;11.50;100.00;163570.34;5071151;28;20410;-62
2022/11/08 02:18:20;;;;;;;13.27;4.97;;;;;;;11.41;100.00;163548.75;5070015;28;20032;-62
2022/11/08 02:21:02;;;;;;;11.30;4.27;;;;;;;11.38;100.00;163540.63;5071275;28;20027;-62
2022/11/08 02:23:52;;;;;;;12.10;2.92;;;;;;;11.35;100.00;163532.53;5050068;28;20464;-61
2022/11/08 02:26:30;;;;;;;7.15;3.50;;;;;;;11.34;100.00;163528.44;5049633;28;20036;-61
2022/11/08 02:28:56;;;;;;;10.90;5.50;;;;;;;11.32;100.00;163523.09;5068503;28;20115;-62
2022/11/08 02:31:21;;;;;;;10.07;3.35;;;;;;;11.28;100.00;163513.63;5069586;28;20024;-62
2022/11/08 02:33:47;;;;;;;9.32;5.28;;;;;;;11.26;100.00;163508.22;5070780;28;20494;-62
2022/11/08 02:36:16;;;;;;;9.77;4.53;;;;;;;11.24;100.00;163502.81;5069845;28;20031;-62
2022/11/08 02:38:43;;;;;;;;;;;;;;;11.20;100.00;163492.03;5071907;28;20016;-62
2022/11/08 02:41:08;;;;;;;13.40;4.40;;;;;;;11.16;100.00;163481.19;5069141;28;19987;-61
2022/11/08 02:43:33;;;;;;;10.15;4.30;;;;;;;11.15;100.00;163478.47;5070873;28;20032;-62
2022/11/08 02:45:59;;;;;;;9.15;3.38;;;;;;;11.09;100.00;163465.00;5070194;28;20039;-60
2022/11/08 02:48:25;;;;;;;12.35;3.92;;;;;;;10.98;100.00;163435.31;5069393;28;20522;-60
2022/11/08 02:50:50;;;;;;;10.18;5.03;;;;;;;10.99;100.00;163437.97;5070358;28;20124;-60
2022/11/08 02:53:16;;;;;;;18.52;4.22;;;;;;;10.97;100.00;163432.63;5069295;28;20522;-60
2022/11/08 02:55:42;;;;;;;10.23;4.68;;;;;;;11.01;100.00;163442.06;5070100;28;20360;-60
2022/11/08 02:58:07;;;;;;;5.65;3.92;;;;;;;11.04;100.00;163450.13;5069102;28;20032;-60
2022/11/08 03:00:33;;;;;;;13.75;4.82;;;;;;;11.14;100.00;163475.78;5070331;28;20036;-61
2022/11/08 03:02:59;;;;;;;20.40;4.95;;;;;;;11.16;100.00;163481.19;5068816;28;20091;-61
2022/11/08 03:05:25;;;;;;;14.73;4.50;;;;;;;11.08;100.00;163462.28;5070797;28;20032;-60
2022/11/08 03:07:52;;;;;;;12.65;4.80;;;;;;;11.07;100.00;163459.59;5068911;28;20044;-61
2022/11/08 03:10:18;;;;;;;7.63;4.15;;;;;;;11.06;100.00;163455.56;5070267;28;20029;-60
2022/11/08 03:12:43;;;;;;;6.53;4.03;;;;;;;10.98;100.00;163435.31;5069356;28;20047;-60
2022/11/08 03:15:10;;;;;;;8.52;4.13;;;;;;;10.91;100.00;163417.75;5070680;28;20142;-60
2022/11/08 03:17:36;;;;;;;12.40;4.60;;;;;;;10.85;100.00;163400.19;5068869;28;20044;-60
2022/11/08 03:20:02;;;;;;;8.75;2.85;;;;;;;10.86;100.00;163402.88;5070859;28;20028;-60
2022/11/08 03:22:28;;;;;;;11.63;4.10;;;;;;;10.86;100.00;163402.88;5068634;28;20048;-60
2022/11/08 03:24:53;;;;;;;10.00;3.40;;;;;;;10.90;100.00;163413.72;5069492;28;20032;-60
2022/11/08 03:27:19;;;;;;;3.08;2.55;;;;;;;10.85;100.00;163401.56;5069131;28;20047;-60
2022/11/08 03:29:44;;;;;;;3.72;2.67;;;;;;;10.83;100.00;163394.81;5070650;28;20024;-60
2022/11/08 03:32:10;;;;;;;8.70;3.30;;;;;;;10.83;100.00;163396.13;5068876;28;20201;-60
2022/11/08 03:34:36;;;;;;;8.98;3.08;;;;;;;10.85;100.00;163400.19;5070101;28;20048;-60
2022/11/08 03:37:03;;;;;;;9.25;4.03;;;;;;;10.86;100.00;163402.88;5068949;28;20587;-60
2022/11/08 03:39:30;;;;;;;8.75;4.38;;;;;;;10.86;100.00;163402.88;5070334;28;20033;-62
2022/11/08 03:41:55;;;;;;;7.25;4.20;;;;;;;10.83;100.00;163396.13;5068457;28;20040;-61
2022/11/08 03:44:21;;;;;;;7.97;4.13;;;;;;;10.87;100.00;163405.59;5070588;28;20031;-61
2022/11/08 03:46:46;;;;;;;18.92;5.35;;;;;;;10.88;100.00;163408.28;5068746;28;20048;-61
2022/11/08 03:49:11;;;;;;;8.70;3.55;;;;;;;10.89;100.00;163411.00;5070110;28;20031;-61
2022/11/08 03:51:37;;;;;;;7.05;4.25;;;;;;;10.89;100.00;163411.00;5068846;28;20379;-61
2022/11/08 03:54:02;;;;;;;6.15;3.10;;;;;;;10.87;100.00;163405.59;5070241;28;20032;-61
2022/11/08 03:56:27;;;;;;;4.47;2.78;;;;;;;10.89;100.00;163411.00;5068426;28;20044;-62
2022/11/08 03:58:53;;;;;;;5.97;3.13;;;;;;;10.88;100.00;163408.28;5069638;28;20024;-61
2022/11/08 04:01:18;;;;;;;10.15;4.90;;;;;;;10.87;100.00;163405.59;5067939;28;20475;-60
2022/11/08 04:03:43;;;;;;;7.57;3.92;;;;;;;10.85;100.00;163400.19;5069345;28;20663;-61
2022/11/08 04:06:09;;;;;;;10.85;3.63;;;;;;;10.83;100.00;163396.13;5069236;28;20052;-61
2022/11/08 04:08:34;;;;;;;3.42;3.03;;;;;;;10.84;100.00;163397.47;5074346;28;20021;-61
2022/11/08 04:16:31;;;;;;;11.27;5.05;;;;;;;10.75;100.00;163375.91;5072597;28;20124;-62
2022/11/08 04:21:45;;;;;;;11.30;3.28;;;;;;;10.70;100.00;163362.38;5062279;28;20043;-62
2022/11/08 04:24:10;;;;;;;15.45;5.63;;;;;;;10.67;100.00;163354.31;5073279;28;20093;-62
2022/11/08 04:26:35;;;;;;;14.45;5.47;;;;;;;10.70;100.00;163362.38;5072006;28;20036;-62
2022/11/08 04:29:04;;;;;;;5.78;3.35;;;;;;;10.65;100.00;163348.91;5073625;28;20024;-62
2022/11/08 04:31:29;;;;;;;17.98;6.35;;;;;;;10.55;100.00;163321.88;5071840;28;20041;-62
2022/11/08 04:33:55;;;;;;;7.45;4.90;;;;;;;10.54;100.00;163319.19;5073305;28;20162;-62
2022/11/08 04:36:20;;;;;;;18.10;6.50;;;;;;;10.51;100.00;163312.44;5071563;28;20043;-62
2022/11/08 04:38:49;;;;;;;12.80;5.28;;;;;;;10.47;100.00;163301.66;5073121;28;20033;-62
2022/11/08 04:41:18;;;;;;;12.05;5.35;;;;;;;10.42;100.00;163289.50;5071390;28;20032;-62
2022/11/08 04:43:43;;;;;;;8.70;4.57;;;;;;;10.36;100.00;163273.25;5073195;28;20050;-62
2022/11/08 04:46:14;;;;;;;15.43;7.30;;;;;;;10.34;100.00;163267.84;5071798;28;20479;-62
2022/11/08 04:48:40;;;;;;;11.93;4.97;;;;;;;10.32;100.00;163262.44;5072729;28;20039;-62
2022/11/08 04:51:09;;;;;;;12.95;5.07;;;;;;;10.34;100.00;163267.84;5071631;28;20115;-61
2022/11/08 04:53:35;;;;;;;12.10;7.35;;;;;;;10.35;100.00;163269.25;5072924;28;20575;-62
2022/11/08 04:56:06;;;;;;;18.27;6.97;;;;;;;10.35;100.00;163270.56;5072805;28;20028;-62
2022/11/08 04:58:34;;;;;;;10.65;6.15;;;;;;;10.32;100.00;163262.44;5071653;28;20031;-62
2022/11/08 05:01:01;;;;;;;8.52;4.50;;;;;;;10.32;100.00;163262.44;5071394;28;20028;-61
2022/11/08 05:03:27;;;;;;;17.52;6.45;;;;;;;10.29;100.00;163255.72;5071057;28;20040;-61
2022/11/08 05:05:52;;;;;;;13.50;7.05;;;;;;;10.28;100.00;163253.00;5072514;28;20037;-59
2022/11/08 05:08:17;;;;;;;13.20;5.32;;;;;;;10.26;100.00;163246.25;5071490;28;20044;-61
2022/11/08 05:10:42;;;;;;;14.60;5.25;;;;;;;10.27;100.00;163250.34;5072116;28;20036;-63
2022/11/08 05:13:08;;;;;;;8.43;5.63;;;;;;;10.26;100.00;163246.25;5069730;28;20048;-62
2022/11/08 05:15:35;;;;;;;9.30;5.90;;;;;;;10.24;100.00;163240.91;5071908;28;20086;-62
2022/11/08 05:18:00;;;;;;;10.48;4.60;;;;;;;10.26;100.00;163246.25;5069536;28;20048;-60
2022/11/08 05:23:24;;;;;;;10.48;4.18;;;;;;;10.34;100.00;163267.84;5071551;28;20043;-60
2022/11/08 05:25:51;;;;;;;8.50;5.00;;;;;;;10.27;100.00;163248.97;5072030;28;20028;-60
2022/11/08 05:28:17;;;;;;;15.65;5.97;;;;;;;10.30;100.00;163257.09;5070589;28;20127;-59
2022/11/08 05:30:42;;;;;;;8.43;5.07;;;;;;;10.37;100.00;163276.03;5072095;28;20047;-58
2022/11/08 05:33:08;;;;;;;9.95;3.45;;;;;;;10.43;100.00;163292.22;5070709;28;20037;-58
2022/11/08 05:35:34;;;;;;;7.82;4.00;;;;;;;10.55;100.00;163321.88;5071295;28;20028;-59
2022/11/08 05:38:00;;;;;;;5.85;3.40;;;;;;;10.57;100.00;163327.28;5070019;28;20040;-58
2022/11/08 05:40:25;;;;;;;5.32;3.55;;;;;;;10.59;100.00;163334.03;5072138;28;20028;-59
2022/11/08 05:42:54;;;;;;;10.32;4.70;;;;;;;10.57;100.00;163327.28;5070596;28;20041;-58
2022/11/08 05:45:19;;;;;;;9.63;3.65;;;;;;;10.57;100.00;163327.28;5072212;28;20498;-59
2022/11/08 05:47:45;;;;;;;5.57;3.42;;;;;;;10.56;100.00;163324.59;5070170;28;20041;-58
2022/11/08 05:50:12;;;;;;;4.55;2.92;;;;;;;10.53;100.00;163317.84;5072185;28;20519;-58
2022/11/08 05:52:37;;;;;;;9.60;3.35;;;;;;;10.54;100.00;163319.19;5070422;28;20071;-58
2022/11/08 05:55:03;;;;;;;10.15;4.35;;;;;;;10.58;100.00;163330.00;5071847;28;20463;-58
2022/11/08 05:57:28;;;;;;;13.90;5.25;;;;;;;10.55;100.00;163321.88;5070632;28;20037;-58
2022/11/08 05:59:53;;;;;;;6.55;3.35;;;;;;;10.57;100.00;163327.28;5072039;28;20089;-59
2022/11/08 06:02:19;;;;;;;9.35;4.53;;;;;;;10.57;100.00;163327.28;5070277;28;20037;-59
2022/11/08 06:04:44;;;;;;;7.18;3.88;;;;;;;10.52;100.00;163315.13;5071534;28;20020;-58
2022/11/08 06:07:09;;;;;;;7.03;4.45;;;;;;;10.53;100.00;163316.53;5070294;28;20060;-58
2022/11/08 06:09:35;;;;;;;6.22;3.38;;;;;;;10.52;100.00;163313.81;5071160;28;20540;-58
2022/11/08 06:12:00;;;;;;;7.00;4.45;;;;;;;10.54;100.00;163319.19;5070510;28;20453;-58
2022/11/08 06:14:26;;;;;;;8.73;3.53;;;;;;;10.51;100.00;163312.44;5071688;28;20029;-59
2022/11/08 06:16:51;;;;;;;7.35;4.43;;;;;;;10.51;100.00;163311.09;5069290;28;20032;-58
2022/11/08 06:19:16;;;;;;;6.43;3.85;;;;;;;10.46;100.00;163300.28;5056279;28;20028;-59
2022/11/08 06:21:42;;;;;;;6.60;3.13;;;;;;;10.47;100.00;163301.66;5049124;28;20086;-58
2022/11/08 06:24:07;;;;;;;3.72;2.78;;;;;;;10.51;100.00;163311.09;5051321;28;20097;-58
2022/11/08 06:26:32;;;;;;;6.95;3.00;;;;;;;10.54;100.00;163320.56;5049835;28;20495;-58
2022/11/08 06:28:59;;;;;;;7.45;3.42;;;;;;;10.57;100.00;163327.28;5050337;28;20028;-59
2022/11/08 06:31:25;;;;;;;4.72;2.60;;;;;;;10.58;100.00;163330.00;5049953;28;20037;-58
2022/11/08 06:33:50;;;;;;;12.82;4.70;;;;;;;10.52;100.00;163315.13;5050925;28;20040;-58
2022/11/08 06:36:15;;;;;;;12.82;3.70;;;;;;;10.47;100.00;163301.66;5049890;28;20426;-58
2022/11/08 06:38:41;;;;;;;5.28;3.47;;;;;;;10.43;100.00;163292.22;5050867;28;20467;-58
2022/11/08 06:41:06;;;;;;;8.07;3.10;;;;;;;10.48;100.00;163304.38;5049719;28;20044;-57
2022/11/08 06:43:32;;;;;;;5.25;2.88;;;;;;;10.47;100.00;163303.00;5056606;28;20013;-59
2022/11/08 06:46:00;;;;;;;11.15;3.53;;;;;;;10.46;100.00;163300.28;5070245;28;20032;-59
2022/11/08 06:48:25;;;;;;;4.90;2.92;;;;;;;10.50;100.00;163309.72;5069406;28;20051;-58
2022/11/08 06:50:50;;;;;;;5.32;3.55;;;;;;;10.56;100.00;163325.97;5070669;28;20383;-59
2022/11/08 06:53:16;;;;;;;4.10;3.03;;;;;;;10.62;100.00;163340.78;5069343;28;20033;-59
2022/11/08 06:55:41;;;;;;;5.28;3.97;;;;;;;10.65;100.00;163348.91;5070748;28;20028;-58
2022/11/08 06:58:07;;;;;;;4.38;3.35;;;;;;;10.62;100.00;163340.78;5069454;28;20029;-59
2022/11/08 07:00:32;;;;;;;8.38;3.80;;;;;;;10.75;100.00;163374.53;5070626;28;20027;-58
2022/11/08 07:02:59;;;;;;;6.68;3.38;;;;;;;10.78;100.00;163382.66;5049249;28;20132;-58
2022/11/08 07:05:26;;;;;;;5.88;3.15;;;;;;;10.83;100.00;163394.81;5050814;28;20391;-59
2022/11/08 07:07:51;;;;;;;6.88;2.78;;;;;;;10.84;100.00;163398.84;5048374;28;20102;-58
2022/11/08 07:10:18;;;;;;;5.40;3.13;;;;;;;10.86;100.00;163402.88;5051199;28;20021;-59
2022/11/08 07:12:44;;;;;;;3.50;2.83;;;;;;;10.87;100.00;163406.91;5049177;28;20133;-59
2022/11/08 07:15:09;;;;;;;4.18;2.65;;;;;;;10.86;100.00;163404.25;5050467;28;20048;-59
2022/11/08 07:17:35;;;;;;;3.00;2.33;;;;;;;10.88;100.00;163409.63;5049226;28;20547;-58
2022/11/08 07:20:00;;;;;;;2.85;2.63;;;;;;;10.96;100.00;163429.91;5050555;28;20021;-59
2022/11/08 07:22:25;;;;;;;3.38;2.42;;;;;;;10.93;100.00;163423.16;5048992;28;20041;-58
2022/11/08 07:24:51;;;;;;;4.55;3.35;;;;;;;10.98;100.00;163435.31;5064376;28;20407;-59
2022/11/08 07:27:16;;;;;;;5.85;3.05;;;;;;;11.01;100.00;163443.38;5069174;28;20041;-59
2022/11/08 07:29:41;;;;;;;8.05;3.45;;;;;;;11.07;100.00;163459.59;5069578;28;20020;-59
2022/11/08 07:32:07;;;;;;;6.32;2.92;;;;;;;11.11;100.00;163470.41;5069230;28;20055;-59
2022/11/08 07:34:32;;;;;;;4.38;2.67;;;;;;;11.17;100.00;163485.22;5070369;28;20027;-59
2022/11/08 07:36:58;;;;;;;4.03;3.40;;;;;;;11.19;100.00;163490.63;5068618;28;20051;-58
2022/11/08 07:39:23;;;;;;;6.53;3.60;;;;;;;11.23;100.00;163501.47;5070457;28;20020;-58
2022/11/08 07:41:48;;;;;;;6.00;3.33;;;;;;;11.28;100.00;163513.63;5072413;28;20487;-58
2022/11/08 07:44:13;;;;;;;3.28;2.97;;;;;;;11.32;100.00;163524.41;5074208;28;20371;-58
2022/11/08 07:46:39;;;;;;;7.28;4.57;;;;;;;11.34;100.00;163528.44;5072655;28;20051;-58
2022/11/08 07:49:04;;;;;;;2.40;2.20;;;;;;;11.35;100.00;163532.53;5074334;28;20017;-58
2022/11/08 07:51:29;;;;;;;8.80;4.03;;;;;;;11.46;100.00;163559.50;5072613;28;20036;-58
2022/11/08 07:53:55;;;;;;;3.03;2.33;;;;;;;11.48;100.00;163564.94;5074417;28;20028;-58
2022/11/08 07:56:20;;;;;;;2.47;2.03;;;;;;;11.52;100.00;163577.09;5073020;28;20016;-59
2022/11/08 07:58:45;;;;;;;3.50;2.97;;;;;;;11.55;100.00;163583.84;5073839;28;20024;-59
2022/11/08 08:01:11;;;;;;;10.85;3.17;;;;;;;11.61;100.00;163600.03;5069390;28;20039;-58
2022/11/08 08:03:36;;;;;;;4.80;4.20;;;;;;;11.68;100.00;163618.94;5074010;28;20023;-59
2022/11/08 08:06:02;;;;;;;3.58;2.72;;;;;;;11.71;100.00;163625.69;5074044;28;20028;-58
2022/11/08 08:08:28;;;;;;;4.60;2.58;;;;;;;11.75;100.00;163637.84;5071546;28;20046;-59
2022/11/08 08:10:58;;;;;;;4.53;4.07;;;;;;;11.85;100.00;163663.50;5074023;28;20063;-59
2022/11/08 08:13:23;;;;;;;3.88;3.10;;;;;;;11.98;100.00;163697.34;5072670;28;20032;-59
2022/11/08 08:15:49;;;;;;;4.47;3.13;;;;;;;12.08;100.00;163723.00;5073357;28;20043;-59
2022/11/08 08:18:16;;;;;;;9.63;3.42;;;;;;;12.08;100.00;163721.69;5072397;28;20048;-59
2022/11/08 08:20:42;;;;;;;3.20;2.00;;;;;;;12.12;100.00;163732.47;5073933;28;20028;-59
2022/11/08 08:23:07;;;;;;;4.55;3.33;;;;;;;12.42;100.00;163810.84;5072060;28;20098;-59
2022/11/08 08:25:33;;;;;;;2.20;2.05;;;;;;;12.38;100.00;163801.38;5073899;28;20417;-59
2022/11/08 08:28:01;;;;;;;8.15;2.85;;;;;;;12.51;100.00;163836.50;5071898;28;20055;-59
2022/11/08 08:30:28;;;;;;;;;;;;;;;12.92;100.00;163943.28;5073891;28;20459;-59
2022/11/08 08:33:07;;;;;;;7.82;2.05;;;;;;;13.16;100.00;164005.47;5071910;28;19912;-59
2022/11/08 08:35:34;;;;;;;4.63;2.25;;;;;;;13.36;100.00;164058.19;5073740;28;20107;-59
2022/11/08 08:38:00;;;;;;;3.47;2.35;;;;;;;13.58;100.00;164116.41;5071747;28;20494;-59
2022/11/08 08:40:26;;;;;;;2.03;1.88;;;;;;;13.66;100.00;164136.69;5073274;28;20073;-59
2022/11/08 08:42:51;;;;;;;3.80;3.13;;;;;;;13.71;100.00;164148.84;5071837;28;20047;-59
2022/11/08 08:45:16;;;;;;;3.72;2.10;;;;;;;13.77;100.00;164165.06;5073071;28;20032;-59
2022/11/08 08:47:42;;;;;;;4.53;2.17;;;;;;;13.73;100.00;164154.28;5071511;28;20052;-59
2022/11/08 08:50:08;;;;;;;5.45;2.42;;;;;;;13.69;100.00;164143.44;5073666;28;20032;-59
2022/11/08 08:52:33;;;;;;;4.95;2.85;;;;;;;13.64;100.00;164132.63;5070922;28;20464;-59
2022/11/08 08:54:58;;;;;;;5.88;2.55;;;;;;;13.58;100.00;164116.41;5073225;28;20020;-59
2022/11/08 08:57:24;;;;;;;8.18;2.90;;;;;;;13.43;100.00;164077.19;5071860;28;20047;-59
2022/11/08 08:59:49;;;;;;;2.83;2.38;;;;;;;13.53;100.00;164102.88;5072453;28;20031;-59
2022/11/08 09:02:15;;;;;;;3.78;1.80;;;;;;;13.69;100.00;164143.44;5071809;28;20040;-59
2022/11/08 09:04:40;;;;;;;8.38;2.80;;;;;;;13.72;100.00;164151.56;5073039;28;20020;-59
2022/11/08 09:07:06;;;;;;;5.40;2.05;;;;;;;13.72;100.00;164152.91;5070885;28;20111;-59
2022/11/08 09:09:33;;;;;;;6.90;2.42;;;;;;;13.67;100.00;164138.00;5073296;28;20032;-59
2022/11/08 09:11:58;;;;;;;7.30;2.78;;;;;;;13.58;100.00;164116.41;5071434;28;20406;-58
2022/11/08 09:14:23;;;;;;;9.45;3.83;;;;;;;13.57;100.00;164113.72;5072697;28;20036;-59
2022/11/08 09:16:49;;;;;;;4.07;2.25;;;;;;;13.58;100.00;164116.41;5071400;28;20564;-59
2022/11/08 09:19:14;;;;;;;4.55;2.47;;;;;;;13.61;100.00;164124.50;5072989;28;20441;-59
2022/11/08 09:21:39;;;;;;;4.25;2.80;;;;;;;13.60;100.00;164120.47;5070788;28;20059;-59
2022/11/08 09:24:05;;;;;;;2.80;2.50;;;;;;;13.77;100.00;164165.06;5072748;28;20027;-59
2022/11/08 09:26:30;;;;;;;4.38;2.30;;;;;;;13.94;100.00;164209.69;5071519;28;20487;-59
2022/11/08 09:28:55;;;;;;;4.00;2.90;;;;;;;14.14;100.00;164262.47;5072073;28;20025;-59
2022/11/08 09:31:21;;;;;;;9.18;4.40;;;;;;;14.41;100.00;164332.78;5071119;28;20028;-59
2022/11/08 09:33:49;;;;;;;5.32;3.97;;;;;;;14.63;100.00;164391.00;5072680;28;20021;-59
2022/11/08 09:36:14;;;;;;;4.20;2.97;;;;;;;14.80;100.00;164435.69;5070936;28;20498;-58
2022/11/08 09:38:40;;;;;;;3.17;2.42;;;;;;;14.91;100.00;164465.50;5072222;28;20422;-59
2022/11/08 09:41:20;;;;;;;8.18;4.05;;;;;;;14.84;100.00;164445.16;5071085;28;20025;-57
2022/11/08 09:43:45;;;;;;;7.22;2.65;;;;;;;14.81;100.00;164438.41;5072098;28;20020;-59
2022/11/08 09:46:23;;;;;;;5.90;2.78;;;;;;;15.04;100.00;164497.94;5070723;28;20132;-58
2022/11/08 09:48:51;;;;;;;2.92;2.45;;;;;;;15.13;100.00;164522.31;5071988;28;20031;-58
2022/11/08 09:51:21;;;;;;;7.22;3.08;;;;;;;14.98;100.00;164481.72;5070531;28;20060;-58
2022/11/08 09:53:52;;;;;;;5.40;3.60;;;;;;;14.69;100.00;164405.94;5071951;28;20013;-58
2022/11/08 09:56:22;;;;;;;5.80;3.03;;;;;;;14.52;100.00;164362.59;5071052;28;20024;-58
2022/11/08 09:59:01;;;;;;;6.30;3.45;;;;;;;14.34;100.00;164313.84;5071532;28;20077;-58
2022/11/08 10:01:29;;;;;;;3.97;3.05;;;;;;;14.27;100.00;164297.63;5070587;28;20037;-58
2022/11/08 10:03:57;;;;;;;;;;;;;;;14.21;100.00;164281.41;5072314;28;20062;-58
2022/11/08 10:06:33;;;;;;;5.60;3.30;;;;;;;14.10;100.00;164253.00;5070229;28;19923;-59
2022/11/08 10:09:20;;;;;;;6.40;2.78;;;;;;;13.99;100.00;164223.25;5071487;28;20035;-59
2022/11/08 10:12:11;;;;;;;4.15;2.40;;;;;;;14.12;100.00;164258.41;5070019;28;20040;-59
2022/11/08 10:14:56;;;;;;;5.07;2.22;;;;;;;14.32;100.00;164308.47;5071748;28;20082;-59
2022/11/08 10:17:47;;;;;;;4.88;2.83;;;;;;;14.31;100.00;164305.75;5070487;28;20036;-59
2022/11/08 10:20:21;;;;;;;4.80;3.30;;;;;;;14.48;100.00;164351.78;5071351;28;20024;-59
2022/11/08 10:23:11;;;;;;;3.05;2.25;;;;;;;14.50;100.00;164357.16;5069964;28;20766;-59
2022/11/08 10:25:46;;;;;;;6.30;3.53;;;;;;;14.47;100.00;164349.06;5071098;28;20119;-59
2022/11/08 10:28:18;;;;;;;3.33;2.28;;;;;;;14.41;100.00;164332.78;5069522;28;20036;-59
2022/11/08 10:30:48;;;;;;;6.65;2.72;;;;;;;14.35;100.00;164317.94;5071302;28;20025;-59
2022/11/08 10:33:19;;;;;;;5.60;2.75;;;;;;;14.39;100.00;164327.41;5070062;28;20483;-59
2022/11/08 10:36:05;;;;;;;2.40;2.20;;;;;;;14.33;100.00;164311.19;5070886;28;20540;-59
2022/11/08 10:38:35;;;;;;;14.05;3.78;;;;;;;14.31;100.00;164305.75;5069928;28;20044;-59
2022/11/08 10:41:13;;;;;;;5.72;2.90;;;;;;;14.30;100.00;164304.38;5071422;28;20581;-59
2022/11/08 10:43:50;;;;;;;9.13;4.00;;;;;;;14.34;100.00;164313.84;5069354;28;20036;-59
2022/11/08 10:46:38;;;;;;;3.90;2.33;;;;;;;14.41;100.00;164332.78;5069809;28;20028;-59
2022/11/08 10:49:29;;;;;;;4.85;2.42;;;;;;;14.39;100.00;164327.41;5071065;28;20039;-59
2022/11/08 10:51:56;;;;;;;7.15;2.95;;;;;;;14.38;100.00;164324.72;5066983;28;20647;-59
2022/11/08 10:54:46;;;;;;;6.43;3.60;;;;;;;14.46;100.00;164346.34;5069451;28;20017;-59
2022/11/08 10:57:22;;;;;;;7.10;4.05;;;;;;;14.52;100.00;164362.59;5069234;28;20043;-58
2022/11/08 10:59:48;;;;;;;3.95;2.83;;;;;;;14.51;100.00;164359.88;5070568;28;20387;-58
2022/11/08 11:02:30;;;;;;;5.05;2.30;;;;;;;14.49;100.00;164354.44;5069435;28;20040;-58
2022/11/08 11:05:22;;;;;;;4.97;2.72;;;;;;;14.51;100.00;164358.53;5070461;28;20028;-59
2022/11/08 11:07:56;;;;;;;5.72;3.15;;;;;;;14.45;100.00;164343.66;5068189;28;20588;-58
2022/11/08 11:10:28;;;;;;;6.25;3.22;;;;;;;14.40;100.00;164330.13;5070008;28;20032;-58
2022/11/08 11:13:00;;;;;;;7.88;2.30;;;;;;;14.41;100.00;164332.78;5068757;28;20044;-58
2022/11/08 11:15:47;;;;;;;4.25;2.50;;;;;;;14.37;100.00;164322.00;5069775;28;20079;-59
2022/11/08 11:18:41;;;;;;;3.22;2.13;;;;;;;14.37;100.00;164322.00;5068617;28;20048;-58
2022/11/08 11:21:15;;;;;;;4.40;3.20;;;;;;;14.37;100.00;164322.00;5069056;28;20043;-57
2022/11/08 11:23:46;;;;;;;5.00;2.45;;;;;;;14.38;100.00;164326.03;5070372;28;20387;-58
2022/11/08 11:26:33;;;;;;;4.88;3.00;;;;;;;14.52;100.00;164361.25;5058252;28;20103;-58
2022/11/08 11:29:04;;;;;;;2.28;1.90;;;;;;;14.63;100.00;164391.00;5070156;28;20024;-58
2022/11/08 11:31:34;;;;;;;2.30;2.10;;;;;;;14.79;100.00;164432.97;5069160;28;20049;-58
2022/11/08 11:34:22;;;;;;;5.22;2.72;;;;;;;14.94;100.00;164470.88;5068585;28;20103;-58
2022/11/08 11:37:00;;;;;;;2.50;2.30;;;;;;;14.91;100.00;164465.50;5065356;28;20050;-58
2022/11/08 11:39:41;;;;;;;3.22;2.55;;;;;;;14.90;100.00;164462.78;5064592;28;20044;-58